Fiskdale, Massachusetts
Current Conditions -  °F | °C
As of 8:54 PM on Friday 24 Oct 2014 (Local Time) from KORH Reporting Station
Overcast Overcast  
Wind Chill: 40°   Ceiling: 1800
Heat Index: 46°   Visibility: 10mi
Dew Point: 40°   Wind: 14mph
Humidity: 79%   Direction: 310°NW
Pressure: 29.75"   Gusts: 22mph
Location:  42.12°N, 72.11°W
Report Text: KORH 250054Z AUTO 31012G19KT 10SM OVC018 08/04 A2975 RMK AO2 SLP080 LAST AUGMENTED OBS T00780044
Loading
Personal Weather Stations






























Interactive Weather Map
Tropical Storm Tracking
New forecast layout! Learn more

10-Day Weather Forecast

Advertisements
Track Severe Weather on mobile